Time;durP1;ratioP1;P1;durP2;ratioP2;P2;SDS_P1;SDS_P2;PMS_P1;PMS_P2;Temp;Humidity;BMP_temperature;BMP_pressure;BME280_temperature;BME280_humidity;BME280_pressure;Samples;Min_cycle;Max_cycle;Signal;HPM_P1;HPM_P2
2021/05/03 00:02:59;;;;;;;0.57;0.53;;;11.50;99.90;;;;;;20543416;28;20229;-75
2021/05/03 00:13:03;;;;;;;0.30;0.30;;;11.50;99.90;;;;;;20517718;28;20711;-75
2021/05/03 00:23:06;;;;;;;0.83;0.83;;;11.50;99.90;;;;;;20545928;28;20230;-74
2021/05/03 00:33:10;;;;;;;0.40;0.33;;;11.50;99.90;;;;;;20543503;28;20586;-73
2021/05/03 00:43:18;;;;;;;0.93;0.50;;;11.40;99.90;;;;;;20543632;28;20231;-73
2021/05/03 00:53:21;;;;;;;0.50;0.50;;;11.40;99.90;;;;;;20464791;29;20610;-73
2021/05/03 01:03:24;;;;;;;0.30;0.23;;;11.50;99.90;;;;;;20497781;28;20274;-73
2021/05/03 01:13:27;;;;;;;0.50;0.50;;;11.50;99.90;;;;;;20568780;28;20235;-75
2021/05/03 01:23:31;;;;;;;0.20;0.10;;;11.80;99.90;;;;;;20618209;28;20223;-74
2021/05/03 01:33:33;;;;;;;0.20;0.20;;;12.00;99.90;;;;;;20616361;28;20204;-75
2021/05/03 01:43:37;;;;;;;0.57;0.43;;;11.80;99.90;;;;;;20616739;28;20696;-73
2021/05/03 01:53:40;;;;;;;0.37;0.37;;;11.80;99.90;;;;;;20600343;28;20222;-73
2021/05/03 02:03:44;;;;;;;0.70;0.60;;;11.70;99.90;;;;;;20561143;28;20231;-73
2021/05/03 02:13:46;;;;;;;0.20;0.10;;;11.50;99.90;;;;;;20539056;28;20228;-73
2021/05/03 02:23:50;;;;;;;0.20;0.10;;;11.20;99.90;;;;;;20537359;28;20228;-73
2021/05/03 02:33:52;;;;;;;0.67;0.60;;;11.50;99.90;;;;;;20536581;28;20228;-74
2021/05/03 02:43:56;;;;;;;0.20;0.10;;;11.30;99.90;;;;;;20536775;28;20223;-73
2021/05/03 02:53:58;;;;;;;1.67;0.67;;;11.20;99.90;;;;;;20533020;28;20699;-74
2021/05/03 03:04:03;;;;;;;0.20;0.20;;;11.10;99.90;;;;;;20535929;28;20751;-74
2021/05/03 03:14:06;;;;;;;0.77;0.77;;;11.10;99.90;;;;;;20570766;28;20231;-74
2021/05/03 03:24:12;;;;;;;0.20;0.10;;;11.10;99.90;;;;;;20645103;28;20237;-75
2021/05/03 03:34:15;;;;;;;0.40;0.40;;;11.00;99.90;;;;;;20626791;28;20720;-74
2021/05/03 03:44:19;;;;;;;0.67;0.47;;;11.00;99.90;;;;;;20630499;28;20199;-75
2021/05/03 03:54:22;;;;;;;0.37;0.37;;;10.90;99.90;;;;;;20612341;28;20207;-76
2021/05/03 04:04:29;;;;;;;0.53;0.30;;;10.80;99.90;;;;;;20584822;28;20219;-78
2021/05/03 04:24:55;;;;;;;0.33;0.33;;;10.80;99.90;;;;;;20546501;28;20522;-76
2021/05/03 04:34:58;;;;;;;0.30;0.30;;;10.80;99.90;;;;;;20567054;28;20291;-77
2021/05/03 04:45:01;;;;;;;0.30;0.30;;;10.80;99.90;;;;;;20563862;28;21110;-76
2021/05/03 04:55:06;;;;;;;0.30;0.27;;;10.60;99.90;;;;;;20543256;28;20234;-76
2021/05/03 05:05:13;;;;;;;0.30;0.30;;;10.70;99.90;;;;;;20538620;28;20243;-75
2021/05/03 05:15:17;;;;;;;0.20;0.10;;;10.90;99.90;;;;;;20536993;28;20613;-74
2021/05/03 05:25:21;;;;;;;0.53;0.53;;;11.10;99.90;;;;;;20541875;28;20224;-72
2021/05/03 05:35:25;;;;;;;0.20;0.17;;;11.20;99.90;;;;;;20540934;28;20201;-74
2021/05/03 05:45:31;;;;;;;0.30;0.30;;;11.50;99.90;;;;;;20539952;28;20630;-76
2021/05/03 05:55:35;;;;;;;0.20;0.20;;;11.90;99.90;;;;;;20541262;28;20575;-75
2021/05/03 06:05:38;;;;;;;0.30;0.30;;;12.20;99.90;;;;;;20535344;28;20220;-75
2021/05/03 06:15:49;;;;;;;2.93;1.10;;;12.60;99.90;;;;;;20585569;28;20755;-78
2021/05/03 06:25:53;;;;;;;0.20;0.20;;;12.70;99.90;;;;;;20618321;28;20230;-76
2021/05/03 06:35:57;;;;;;;0.73;0.47;;;12.80;99.90;;;;;;20576940;28;20203;-73
2021/05/03 06:46:00;;;;;;;1.13;0.57;;;12.90;99.90;;;;;;20534298;28;20334;-76
2021/05/03 06:56:03;;;;;;;0.87;0.60;;;13.30;99.90;;;;;;20519188;28;20583;-76
2021/05/03 07:06:08;;;;;;;0.53;0.47;;;13.80;99.90;;;;;;20591406;28;20258;-75
2021/05/03 07:16:10;;;;;;;0.30;0.30;;;14.40;99.90;;;;;;20613962;28;20485;-76
2021/05/03 07:26:14;;;;;;;0.73;0.70;;;14.90;99.90;;;;;;20612295;28;20692;-75
2021/05/03 07:36:20;;;;;;;0.37;0.37;;;15.30;99.90;;;;;;20571680;28;20339;-78
2021/05/03 07:46:25;;;;;;;1.43;0.90;;;15.60;99.90;;;;;;20539260;28;20224;-80
2021/05/03 07:56:31;;;;;;;0.30;0.30;;;15.70;99.90;;;;;;20520703;28;20216;-79
2021/05/03 08:06:39;;;;;;;6.73;0.60;;;16.10;99.90;;;;;;20592358;28;20271;-77
2021/05/03 08:16:43;;;;;;;0.40;0.40;;;16.30;99.90;;;;;;20604766;28;20705;-77
2021/05/03 08:26:46;;;;;;;0.57;0.57;;;16.30;99.90;;;;;;20629725;28;20231;-77
2021/05/03 08:36:51;;;;;;;0.30;0.27;;;16.10;99.90;;;;;;20578446;28;20214;-76
2021/05/03 08:46:55;;;;;;;0.83;0.67;;;16.00;99.90;;;;;;20532231;28;21010;-77
2021/05/03 08:56:58;;;;;;;0.20;0.20;;;16.30;99.90;;;;;;20543577;28;20589;-76
2021/05/03 09:07:12;;;;;;;0.50;0.27;;;16.70;99.90;;;;;;20543592;28;20228;-74
2021/05/03 09:17:27;;;;;;;0.40;0.40;;;17.20;99.90;;;;;;20540472;28;20228;-67
2021/05/03 09:27:31;;;;;;;0.30;0.20;;;17.40;99.90;;;;;;20540183;28;20734;-74
2021/05/03 09:37:38;;;;;;;0.20;0.20;;;17.60;99.90;;;;;;20564050;28;20292;-73
2021/05/03 09:47:42;;;;;;;1.60;0.47;;;17.60;99.90;;;;;;20546713;28;20374;-74
2021/05/03 09:58:06;;;;;;;0.97;0.37;;;18.40;99.90;;;;;;20537481;28;20219;-76
2021/05/03 10:08:09;;;;;;;0.80;0.50;;;18.20;99.90;;;;;;20536740;28;20235;-75
2021/05/03 10:18:16;;;;;;;0.40;0.40;;;19.00;99.90;;;;;;20534943;28;20228;-74
2021/05/03 10:28:50;;;;;;;33.47;0.77;;;18.80;99.90;;;;;;20519004;28;20758;-75
2021/05/03 10:38:53;;;;;;;0.43;0.40;;;19.00;99.90;;;;;;20533823;28;20672;-75
2021/05/03 10:49:00;;;;;;;0.60;0.60;;;19.80;99.90;;;;;;20517805;28;20634;-74
2021/05/03 10:59:10;;;;;;;2.37;0.60;;;19.30;99.90;;;;;;20534995;28;20204;-75
2021/05/03 11:09:34;;;;;;;2.33;1.27;;;19.70;99.90;;;;;;20531687;28;20682;-74
2021/05/03 11:19:51;;;;;;;0.40;0.40;;;20.50;99.90;;;;;;20534041;28;20242;-75
2021/05/03 11:30:03;;;;;;;5.37;1.00;;;21.60;99.90;;;;;;20532446;28;20330;-75
2021/05/03 11:40:15;;;;;;;0.30;0.30;;;22.10;99.90;;;;;;20531089;28;20726;-75
2021/05/03 11:50:22;;;;;;;0.30;0.30;;;21.20;99.90;;;;;;20517718;28;20324;-75
2021/05/03 12:00:26;;;;;;;0.23;0.23;;;21.40;99.90;;;;;;20538108;28;20804;-78
2021/05/03 12:10:30;;;;;;;0.30;0.30;;;21.90;99.90;;;;;;20531987;28;20658;-76
2021/05/03 12:20:34;;;;;;;0.30;0.30;;;22.70;99.90;;;;;;20533119;28;20352;-74
2021/05/03 12:30:43;;;;;;;0.83;0.57;;;22.50;99.90;;;;;;20532943;28;20224;-73
2021/05/03 12:40:46;;;;;;;0.73;0.70;;;23.00;99.90;;;;;;20533297;28;20200;-74
2021/05/03 13:12:03;;;;;;;0.50;0.50;;;23.60;99.90;;;;;;20544408;28;20637;-74
2021/05/03 13:22:55;;;;;;;8.00;1.50;;;24.50;99.90;;;;;;20545299;28;20235;-77
2021/05/03 13:32:59;;;;;;;0.20;0.10;;;24.70;99.90;;;;;;20543767;28;20713;-75
2021/05/03 13:43:05;;;;;;;4.47;0.40;;;23.30;99.90;;;;;;20540849;28;20335;-76
2021/05/03 13:53:10;;;;;;;0.70;0.70;;;23.50;99.90;;;;;;20527618;28;20704;-76
2021/05/03 14:03:13;;;;;;;0.73;0.73;;;23.00;99.90;;;;;;20540660;28;20204;-76
2021/05/03 14:13:16;;;;;;;0.30;0.30;;;23.40;99.90;;;;;;20538748;28;20232;-76
2021/05/03 14:23:19;;;;;;;1.02;0.60;;;24.70;99.90;;;;;;20541855;28;20446;-75
2021/05/03 14:33:25;;;;;;;0.20;0.15;;;24.60;99.90;;;;;;20542033;28;20220;-75
2021/05/03 14:43:28;;;;;;;0.63;0.30;;;25.60;99.90;;;;;;20578283;28;20204;-76
2021/05/03 14:53:51;;;;;;;0.60;0.37;;;24.80;99.90;;;;;;20535983;28;20234;-77
2021/05/03 15:03:53;;;;;;;0.32;0.32;;;25.00;99.90;;;;;;20536119;28;20227;-74
2021/05/03 15:14:00;;;;;;;0.47;0.43;;;25.20;99.90;;;;;;20536316;28;21112;-76
2021/05/03 15:24:09;;;;;;;0.52;0.52;;;23.90;99.90;;;;;;20536021;28;20254;-76
2021/05/03 15:34:14;;;;;;;0.30;0.20;;;24.30;99.90;;;;;;20551233;28;20267;-74
2021/05/03 15:44:20;;;;;;;0.20;0.17;;;23.30;99.90;;;;;;20551516;28;20657;-76
2021/05/03 15:54:53;;;;;;;0.73;0.40;;;23.70;99.90;;;;;;20549922;28;21030;-74
2021/05/03 16:04:58;;;;;;;0.63;0.63;;;23.30;99.90;;;;;;20551689;28;20892;-76
2021/05/03 16:15:03;;;;;;;0.20;0.10;;;22.30;99.90;;;;;;20530411;28;20243;-75
2021/05/03 16:25:07;;;;;;;0.33;0.33;;;20.70;99.90;;;;;;20548778;28;20196;-75
2021/05/03 16:35:12;;;;;;;0.37;0.30;;;19.80;99.90;;;;;;20549224;28;20220;-75
2021/05/03 16:45:16;;;;;;;0.63;0.50;;;19.40;99.90;;;;;;20550058;28;20756;-73
2021/05/03 16:55:20;;;;;;;0.70;0.50;;;19.30;99.90;;;;;;20549932;28;20193;-79
2021/05/03 17:05:24;;;;;;;0.50;0.50;;;19.10;99.90;;;;;;20531599;28;20280;-78
2021/05/03 17:15:27;;;;;;;2.53;0.83;;;19.10;99.90;;;;;;20529094;28;20315;-76
2021/05/03 17:25:31;;;;;;;0.40;0.37;;;19.90;99.90;;;;;;20532188;28;21094;-76
2021/05/03 17:35:37;;;;;;;0.20;0.20;;;20.00;99.90;;;;;;20529628;28;20200;-81
2021/05/03 17:45:40;;;;;;;0.20;0.20;;;19.40;99.90;;;;;;20533198;28;20192;-79
2021/05/03 17:55:50;;;;;;;0.53;0.53;;;19.40;99.90;;;;;;20547650;28;20621;-81
2021/05/03 18:05:59;;;;;;;0.77;0.40;;;18.60;99.90;;;;;;20551634;28;20586;-77
2021/05/03 18:16:07;;;;;;;0.70;0.50;;;17.80;99.90;;;;;;20529247;28;20247;-80
2021/05/03 18:26:12;;;;;;;2.57;1.70;;;17.30;99.90;;;;;;20534944;28;20322;-77
2021/05/03 18:36:16;;;;;;;1.07;0.53;;;16.70;99.90;;;;;;20551775;28;20540;-77
2021/05/03 18:46:19;;;;;;;0.47;0.47;;;16.70;99.90;;;;;;20543735;28;20234;-80
2021/05/03 18:56:23;;;;;;;0.33;0.27;;;16.50;99.90;;;;;;20525563;28;20596;-74
2021/05/03 19:06:28;;;;;;;0.70;0.50;;;16.20;99.90;;;;;;20539331;28;20216;-78
2021/05/03 19:16:32;;;;;;;0.37;0.23;;;15.80;99.90;;;;;;20541226;28;20239;-76
2021/05/03 19:26:35;;;;;;;0.20;0.20;;;15.70;99.90;;;;;;20546413;28;20306;-75
2021/05/03 19:36:38;;;;;;;1.17;0.77;;;15.20;99.90;;;;;;20552686;28;20717;-76
2021/05/03 19:46:42;;;;;;;0.73;0.43;;;14.80;99.90;;;;;;20586856;28;20286;-75
2021/05/03 20:07:42;;;;;;;0.20;0.20;;;14.40;99.90;;;;;;20058645;29;20722;-74
2021/05/03 20:17:48;;;;;;;0.93;0.77;;;13.90;99.90;;;;;;20051158;29;20250;-73
2021/05/03 20:27:54;;;;;;;0.50;0.50;;;13.80;99.90;;;;;;20051403;29;20659;-74
2021/05/03 20:48:18;;;;;;;0.60;0.60;;;13.40;99.90;;;;;;20548268;28;20386;-72
2021/05/03 20:58:25;;;;;;;0.33;0.33;;;13.40;99.90;;;;;;20526202;28;20658;-72
2021/05/03 21:08:30;;;;;;;0.43;0.43;;;13.20;99.90;;;;;;20528551;28;20235;-77
2021/05/03 21:18:33;;;;;;;0.30;0.30;;;13.00;99.90;;;;;;20545595;28;20235;-79
2021/05/03 21:28:36;;;;;;;0.60;0.60;;;12.90;99.90;;;;;;20544175;28;20314;-74
2021/05/03 21:38:40;;;;;;;0.63;0.63;;;12.70;99.90;;;;;;20543704;28;20657;-73
2021/05/03 21:48:43;;;;;;;0.97;0.87;;;12.60;99.90;;;;;;20541354;28;20230;-73
2021/05/03 21:58:47;;;;;;;0.20;0.20;;;12.50;99.90;;;;;;20544548;28;20204;-74
2021/05/03 22:08:51;;;;;;;0.20;0.10;;;12.40;99.90;;;;;;20560611;28;20224;-74
2021/05/03 22:19:07;;;;;;;0.60;0.60;;;12.60;99.90;;;;;;20536315;28;20278;-74
2021/05/03 22:29:13;;;;;;;0.20;0.17;;;12.50;99.90;;;;;;20534928;28;20302;-73
2021/05/03 22:39:22;;;;;;;0.37;0.37;;;12.20;99.90;;;;;;20534396;28;20206;-75
2021/05/03 23:00:28;;;;;;;0.37;0.37;;;12.50;99.90;;;;;;20536304;28;20409;-73
2021/05/03 23:20:48;;;;;;;0.20;0.10;;;12.60;99.90;;;;;;20514219;28;20698;-72
2021/05/03 23:30:51;;;;;;;0.40;0.37;;;12.50;99.90;;;;;;20533392;28;20247;-73
2021/05/03 23:40:54;;;;;;;0.40;0.40;;;12.40;99.90;;;;;;20532817;28;20203;-73
2021/05/03 23:50:57;;;;;;;0.80;0.67;;;12.80;99.90;;;;;;20544830;28;20475;-73
